<?xml version="1.0" encoding="UTF-8" standalone="no" ?>
<gpx xmlns="http://www.topografix.com/GPX/1/1" xmlns:xsi="http://www.w3.org/2001/XMLSchema-instance" xsi:schemaLocation="http://www.topografix.com/GPX/1/1 http://www.topografix.com/GPX/1/1/gpx.xsd" version="1.1" creator="VisuGPX - https://www.visugpx.com">
  <metadata>
    <name>2020-03-31 16:14:34</name>
    <desc><![CDATA[
]]></desc>
  </metadata>
  <trk>
    <name><![CDATA[2020-03-31 16:14:34]]></name>
    <trkseg>
      <trkpt lat="43.84344" lon="0.6681">
        <ele>94.35</ele>
        <time>2020-03-31T13:05:25Z</time>
      </trkpt>
      <trkpt lat="43.84344" lon="0.6681">
        <ele>94.35</ele>
        <time>2020-03-31T13:05:25Z</time>
      </trkpt>
      <trkpt lat="43.84344" lon="0.66793">
        <ele>94.35</ele>
        <time>2020-03-31T13:07:06Z</time>
      </trkpt>
      <trkpt lat="43.84336" lon="0.66791">
        <ele>94.35</ele>
        <time>2020-03-31T13:07:20Z</time>
      </trkpt>
      <trkpt lat="43.84327" lon="0.66792">
        <ele>94.35</ele>
        <time>2020-03-31T13:07:27Z</time>
      </trkpt>
      <trkpt lat="43.84316" lon="0.66796">
        <ele>94.35</ele>
        <time>2020-03-31T13:07:35Z</time>
      </trkpt>
      <trkpt lat="43.84306" lon="0.66799">
        <ele>94.35</ele>
        <time>2020-03-31T13:07:43Z</time>
      </trkpt>
      <trkpt lat="43.84297" lon="0.66796">
        <ele>93.39</ele>
        <time>2020-03-31T13:07:50Z</time>
      </trkpt>
      <trkpt lat="43.84292" lon="0.66785">
        <ele>93.39</ele>
        <time>2020-03-31T13:07:56Z</time>
      </trkpt>
      <trkpt lat="43.84289" lon="0.6677">
        <ele>93.39</ele>
        <time>2020-03-31T13:08:03Z</time>
      </trkpt>
      <trkpt lat="43.84285" lon="0.66758">
        <ele>93.39</ele>
        <time>2020-03-31T13:08:10Z</time>
      </trkpt>
      <trkpt lat="43.84278" lon="0.6675">
        <ele>92.42</ele>
        <time>2020-03-31T13:08:17Z</time>
      </trkpt>
      <trkpt lat="43.84268" lon="0.66752">
        <ele>92.42</ele>
        <time>2020-03-31T13:08:25Z</time>
      </trkpt>
      <trkpt lat="43.84258" lon="0.66756">
        <ele>92.42</ele>
        <time>2020-03-31T13:08:33Z</time>
      </trkpt>
      <trkpt lat="43.84247" lon="0.6676">
        <ele>91.94</ele>
        <time>2020-03-31T13:08:40Z</time>
      </trkpt>
      <trkpt lat="43.84237" lon="0.66765">
        <ele>91.94</ele>
        <time>2020-03-31T13:08:47Z</time>
      </trkpt>
      <trkpt lat="43.84227" lon="0.66769">
        <ele>91.94</ele>
        <time>2020-03-31T13:08:55Z</time>
      </trkpt>
      <trkpt lat="43.84219" lon="0.66773">
        <ele>91.94</ele>
        <time>2020-03-31T13:09:01Z</time>
      </trkpt>
      <trkpt lat="43.84209" lon="0.66776">
        <ele>91.46</ele>
        <time>2020-03-31T13:09:08Z</time>
      </trkpt>
      <trkpt lat="43.84199" lon="0.6678">
        <ele>91.46</ele>
        <time>2020-03-31T13:09:15Z</time>
      </trkpt>
      <trkpt lat="43.8419" lon="0.66786">
        <ele>90.5</ele>
        <time>2020-03-31T13:09:23Z</time>
      </trkpt>
      <trkpt lat="43.84181" lon="0.66793">
        <ele>90.5</ele>
        <time>2020-03-31T13:09:31Z</time>
      </trkpt>
      <trkpt lat="43.84171" lon="0.66801">
        <ele>91.94</ele>
        <time>2020-03-31T13:09:39Z</time>
      </trkpt>
      <trkpt lat="43.84164" lon="0.66811">
        <ele>91.94</ele>
        <time>2020-03-31T13:09:46Z</time>
      </trkpt>
      <trkpt lat="43.84156" lon="0.66821">
        <ele>91.94</ele>
        <time>2020-03-31T13:09:53Z</time>
      </trkpt>
      <trkpt lat="43.84148" lon="0.66833">
        <ele>91.94</ele>
        <time>2020-03-31T13:10:01Z</time>
      </trkpt>
      <trkpt lat="43.8414" lon="0.66844">
        <ele>91.94</ele>
        <time>2020-03-31T13:10:09Z</time>
      </trkpt>
      <trkpt lat="43.84136" lon="0.66857">
        <ele>91.46</ele>
        <time>2020-03-31T13:10:16Z</time>
      </trkpt>
      <trkpt lat="43.8413" lon="0.66868">
        <ele>91.46</ele>
        <time>2020-03-31T13:10:23Z</time>
      </trkpt>
      <trkpt lat="43.84122" lon="0.66879">
        <ele>91.46</ele>
        <time>2020-03-31T13:10:31Z</time>
      </trkpt>
      <trkpt lat="43.84114" lon="0.66889">
        <ele>91.46</ele>
        <time>2020-03-31T13:10:39Z</time>
      </trkpt>
      <trkpt lat="43.84108" lon="0.66901">
        <ele>91.46</ele>
        <time>2020-03-31T13:10:47Z</time>
      </trkpt>
      <trkpt lat="43.84102" lon="0.66913">
        <ele>91.46</ele>
        <time>2020-03-31T13:10:55Z</time>
      </trkpt>
      <trkpt lat="43.84094" lon="0.66921">
        <ele>91.46</ele>
        <time>2020-03-31T13:11:03Z</time>
      </trkpt>
      <trkpt lat="43.84083" lon="0.6693">
        <ele>91.46</ele>
        <time>2020-03-31T13:11:10Z</time>
      </trkpt>
      <trkpt lat="43.84074" lon="0.66935">
        <ele>91.46</ele>
        <time>2020-03-31T13:11:17Z</time>
      </trkpt>
      <trkpt lat="43.84064" lon="0.6694">
        <ele>91.46</ele>
        <time>2020-03-31T13:11:24Z</time>
      </trkpt>
      <trkpt lat="43.84055" lon="0.66943">
        <ele>92.42</ele>
        <time>2020-03-31T13:11:31Z</time>
      </trkpt>
      <trkpt lat="43.84045" lon="0.66946">
        <ele>90.98</ele>
        <time>2020-03-31T13:11:38Z</time>
      </trkpt>
      <trkpt lat="43.84036" lon="0.66948">
        <ele>91.94</ele>
        <time>2020-03-31T13:11:45Z</time>
      </trkpt>
      <trkpt lat="43.84027" lon="0.6695">
        <ele>92.42</ele>
        <time>2020-03-31T13:11:52Z</time>
      </trkpt>
      <trkpt lat="43.84016" lon="0.66952">
        <ele>92.42</ele>
        <time>2020-03-31T13:12:00Z</time>
      </trkpt>
      <trkpt lat="43.84005" lon="0.66953">
        <ele>92.42</ele>
        <time>2020-03-31T13:12:09Z</time>
      </trkpt>
      <trkpt lat="43.83995" lon="0.66955">
        <ele>92.42</ele>
        <time>2020-03-31T13:12:17Z</time>
      </trkpt>
      <trkpt lat="43.83984" lon="0.66959">
        <ele>92.42</ele>
        <time>2020-03-31T13:12:25Z</time>
      </trkpt>
      <trkpt lat="43.8397" lon="0.66964">
        <ele>92.42</ele>
        <time>2020-03-31T13:12:33Z</time>
      </trkpt>
      <trkpt lat="43.83959" lon="0.66966">
        <ele>92.42</ele>
        <time>2020-03-31T13:12:41Z</time>
      </trkpt>
      <trkpt lat="43.83949" lon="0.66967">
        <ele>92.42</ele>
        <time>2020-03-31T13:12:48Z</time>
      </trkpt>
      <trkpt lat="43.8394" lon="0.66969">
        <ele>92.42</ele>
        <time>2020-03-31T13:12:55Z</time>
      </trkpt>
      <trkpt lat="43.83929" lon="0.66972">
        <ele>92.42</ele>
        <time>2020-03-31T13:13:03Z</time>
      </trkpt>
      <trkpt lat="43.8392" lon="0.66976">
        <ele>92.42</ele>
        <time>2020-03-31T13:13:09Z</time>
      </trkpt>
      <trkpt lat="43.83911" lon="0.6698">
        <ele>92.42</ele>
        <time>2020-03-31T13:13:15Z</time>
      </trkpt>
      <trkpt lat="43.83902" lon="0.66983">
        <ele>92.42</ele>
        <time>2020-03-31T13:13:21Z</time>
      </trkpt>
      <trkpt lat="43.83894" lon="0.66987">
        <ele>92.9</ele>
        <time>2020-03-31T13:13:28Z</time>
      </trkpt>
      <trkpt lat="43.83885" lon="0.66991">
        <ele>92.9</ele>
        <time>2020-03-31T13:13:34Z</time>
      </trkpt>
      <trkpt lat="43.83876" lon="0.66997">
        <ele>91.46</ele>
        <time>2020-03-31T13:13:40Z</time>
      </trkpt>
      <trkpt lat="43.83868" lon="0.67002">
        <ele>91.46</ele>
        <time>2020-03-31T13:13:47Z</time>
      </trkpt>
      <trkpt lat="43.8386" lon="0.67003">
        <ele>91.46</ele>
        <time>2020-03-31T13:13:54Z</time>
      </trkpt>
      <trkpt lat="43.83847" lon="0.67009">
        <ele>90.98</ele>
        <time>2020-03-31T13:14:08Z</time>
      </trkpt>
      <trkpt lat="43.83838" lon="0.67016">
        <ele>90.98</ele>
        <time>2020-03-31T13:14:14Z</time>
      </trkpt>
      <trkpt lat="43.83828" lon="0.67025">
        <ele>90.98</ele>
        <time>2020-03-31T13:14:19Z</time>
      </trkpt>
      <trkpt lat="43.83821" lon="0.67032">
        <ele>90.5</ele>
        <time>2020-03-31T13:14:23Z</time>
      </trkpt>
      <trkpt lat="43.83813" lon="0.67034">
        <ele>90.5</ele>
        <time>2020-03-31T13:14:28Z</time>
      </trkpt>
      <trkpt lat="43.83805" lon="0.6704">
        <ele>90.5</ele>
        <time>2020-03-31T13:14:42Z</time>
      </trkpt>
      <trkpt lat="43.83796" lon="0.67049">
        <ele>90.5</ele>
        <time>2020-03-31T13:14:48Z</time>
      </trkpt>
      <trkpt lat="43.83788" lon="0.67056">
        <ele>90.5</ele>
        <time>2020-03-31T13:14:52Z</time>
      </trkpt>
      <trkpt lat="43.83779" lon="0.67061">
        <ele>90.5</ele>
        <time>2020-03-31T13:14:58Z</time>
      </trkpt>
      <trkpt lat="43.83768" lon="0.67066">
        <ele>90.5</ele>
        <time>2020-03-31T13:15:11Z</time>
      </trkpt>
      <trkpt lat="43.8376" lon="0.67073">
        <ele>90.5</ele>
        <time>2020-03-31T13:15:17Z</time>
      </trkpt>
      <trkpt lat="43.83752" lon="0.67081">
        <ele>90.5</ele>
        <time>2020-03-31T13:15:24Z</time>
      </trkpt>
      <trkpt lat="43.83741" lon="0.67086">
        <ele>91.94</ele>
        <time>2020-03-31T13:15:34Z</time>
      </trkpt>
      <trkpt lat="43.83732" lon="0.67092">
        <ele>91.94</ele>
        <time>2020-03-31T13:15:39Z</time>
      </trkpt>
      <trkpt lat="43.83721" lon="0.67096">
        <ele>91.46</ele>
        <time>2020-03-31T13:15:44Z</time>
      </trkpt>
      <trkpt lat="43.83713" lon="0.67099">
        <ele>91.94</ele>
        <time>2020-03-31T13:15:55Z</time>
      </trkpt>
      <trkpt lat="43.83703" lon="0.67106">
        <ele>91.94</ele>
        <time>2020-03-31T13:16:02Z</time>
      </trkpt>
      <trkpt lat="43.83694" lon="0.67109">
        <ele>91.94</ele>
        <time>2020-03-31T13:16:06Z</time>
      </trkpt>
      <trkpt lat="43.83685" lon="0.67112">
        <ele>91.94</ele>
        <time>2020-03-31T13:16:17Z</time>
      </trkpt>
      <trkpt lat="43.83676" lon="0.67117">
        <ele>91.94</ele>
        <time>2020-03-31T13:16:22Z</time>
      </trkpt>
      <trkpt lat="43.83667" lon="0.67119">
        <ele>91.94</ele>
        <time>2020-03-31T13:16:27Z</time>
      </trkpt>
      <trkpt lat="43.83658" lon="0.67122">
        <ele>91.94</ele>
        <time>2020-03-31T13:16:39Z</time>
      </trkpt>
      <trkpt lat="43.83648" lon="0.67128">
        <ele>91.94</ele>
        <time>2020-03-31T13:16:44Z</time>
      </trkpt>
      <trkpt lat="43.83639" lon="0.6713">
        <ele>91.94</ele>
        <time>2020-03-31T13:16:48Z</time>
      </trkpt>
      <trkpt lat="43.83631" lon="0.67132">
        <ele>91.94</ele>
        <time>2020-03-31T13:16:59Z</time>
      </trkpt>
      <trkpt lat="43.83621" lon="0.67135">
        <ele>91.94</ele>
        <time>2020-03-31T13:17:06Z</time>
      </trkpt>
      <trkpt lat="43.8361" lon="0.67139">
        <ele>91.94</ele>
        <time>2020-03-31T13:17:12Z</time>
      </trkpt>
      <trkpt lat="43.83602" lon="0.67141">
        <ele>91.94</ele>
        <time>2020-03-31T13:17:16Z</time>
      </trkpt>
      <trkpt lat="43.83596" lon="0.67145">
        <ele>91.94</ele>
        <time>2020-03-31T13:17:21Z</time>
      </trkpt>
      <trkpt lat="43.83593" lon="0.67155">
        <ele>90.5</ele>
        <time>2020-03-31T13:17:31Z</time>
      </trkpt>
      <trkpt lat="43.83596" lon="0.67171">
        <ele>89.54</ele>
        <time>2020-03-31T13:17:38Z</time>
      </trkpt>
      <trkpt lat="43.83598" lon="0.67183">
        <ele>89.54</ele>
        <time>2020-03-31T13:17:43Z</time>
      </trkpt>
      <trkpt lat="43.83598" lon="0.67193">
        <ele>89.54</ele>
        <time>2020-03-31T13:17:53Z</time>
      </trkpt>
      <trkpt lat="43.83602" lon="0.67209">
        <ele>89.54</ele>
        <time>2020-03-31T13:18:00Z</time>
      </trkpt>
      <trkpt lat="43.83604" lon="0.67221">
        <ele>89.54</ele>
        <time>2020-03-31T13:18:04Z</time>
      </trkpt>
      <trkpt lat="43.83606" lon="0.67235">
        <ele>89.54</ele>
        <time>2020-03-31T13:18:14Z</time>
      </trkpt>
      <trkpt lat="43.83606" lon="0.67246">
        <ele>89.54</ele>
        <time>2020-03-31T13:18:20Z</time>
      </trkpt>
      <trkpt lat="43.83608" lon="0.67261">
        <ele>89.54</ele>
        <time>2020-03-31T13:18:30Z</time>
      </trkpt>
      <trkpt lat="43.83608" lon="0.67274">
        <ele>88.58</ele>
        <time>2020-03-31T13:18:40Z</time>
      </trkpt>
      <trkpt lat="43.83611" lon="0.6729">
        <ele>88.58</ele>
        <time>2020-03-31T13:18:46Z</time>
      </trkpt>
      <trkpt lat="43.83611" lon="0.67304">
        <ele>88.58</ele>
        <time>2020-03-31T13:18:57Z</time>
      </trkpt>
      <trkpt lat="43.83614" lon="0.67317">
        <ele>88.58</ele>
        <time>2020-03-31T13:19:01Z</time>
      </trkpt>
      <trkpt lat="43.83614" lon="0.67332">
        <ele>87.62</ele>
        <time>2020-03-31T13:19:14Z</time>
      </trkpt>
      <trkpt lat="43.83617" lon="0.67347">
        <ele>87.14</ele>
        <time>2020-03-31T13:19:19Z</time>
      </trkpt>
      <trkpt lat="43.83617" lon="0.67359">
        <ele>87.14</ele>
        <time>2020-03-31T13:19:23Z</time>
      </trkpt>
      <trkpt lat="43.83617" lon="0.67375">
        <ele>86.66</ele>
        <time>2020-03-31T13:19:34Z</time>
      </trkpt>
      <trkpt lat="43.83615" lon="0.67386">
        <ele>86.66</ele>
        <time>2020-03-31T13:19:39Z</time>
      </trkpt>
      <trkpt lat="43.83606" lon="0.67392">
        <ele>86.66</ele>
        <time>2020-03-31T13:19:47Z</time>
      </trkpt>
      <trkpt lat="43.83597" lon="0.67401">
        <ele>86.66</ele>
        <time>2020-03-31T13:19:57Z</time>
      </trkpt>
      <trkpt lat="43.83589" lon="0.67408">
        <ele>86.66</ele>
        <time>2020-03-31T13:20:06Z</time>
      </trkpt>
      <trkpt lat="43.8358" lon="0.67416">
        <ele>86.66</ele>
        <time>2020-03-31T13:20:15Z</time>
      </trkpt>
      <trkpt lat="43.83572" lon="0.67423">
        <ele>86.66</ele>
        <time>2020-03-31T13:20:23Z</time>
      </trkpt>
      <trkpt lat="43.83568" lon="0.67435">
        <ele>86.66</ele>
        <time>2020-03-31T13:20:28Z</time>
      </trkpt>
      <trkpt lat="43.83567" lon="0.6745">
        <ele>86.66</ele>
        <time>2020-03-31T13:20:39Z</time>
      </trkpt>
      <trkpt lat="43.83567" lon="0.67439">
        <ele>86.66</ele>
        <time>2020-03-31T13:20:46Z</time>
      </trkpt>
      <trkpt lat="43.83571" lon="0.67427">
        <ele>86.66</ele>
        <time>2020-03-31T13:20:55Z</time>
      </trkpt>
      <trkpt lat="43.83578" lon="0.67417">
        <ele>86.66</ele>
        <time>2020-03-31T13:21:04Z</time>
      </trkpt>
      <trkpt lat="43.83586" lon="0.67409">
        <ele>86.66</ele>
        <time>2020-03-31T13:21:12Z</time>
      </trkpt>
      <trkpt lat="43.83593" lon="0.67403">
        <ele>86.66</ele>
        <time>2020-03-31T13:21:17Z</time>
      </trkpt>
      <trkpt lat="43.83603" lon="0.67399">
        <ele>86.66</ele>
        <time>2020-03-31T13:21:26Z</time>
      </trkpt>
      <trkpt lat="43.83612" lon="0.67393">
        <ele>86.66</ele>
        <time>2020-03-31T13:21:35Z</time>
      </trkpt>
      <trkpt lat="43.83619" lon="0.67385">
        <ele>86.66</ele>
        <time>2020-03-31T13:21:43Z</time>
      </trkpt>
      <trkpt lat="43.8362" lon="0.67372">
        <ele>86.66</ele>
        <time>2020-03-31T13:21:48Z</time>
      </trkpt>
      <trkpt lat="43.83619" lon="0.67359">
        <ele>86.66</ele>
        <time>2020-03-31T13:21:57Z</time>
      </trkpt>
      <trkpt lat="43.83617" lon="0.67346">
        <ele>86.66</ele>
        <time>2020-03-31T13:22:06Z</time>
      </trkpt>
      <trkpt lat="43.83617" lon="0.67331">
        <ele>88.58</ele>
        <time>2020-03-31T13:22:16Z</time>
      </trkpt>
      <trkpt lat="43.83614" lon="0.67313">
        <ele>89.06</ele>
        <time>2020-03-31T13:22:24Z</time>
      </trkpt>
      <trkpt lat="43.83612" lon="0.67298">
        <ele>90.02</ele>
        <time>2020-03-31T13:22:32Z</time>
      </trkpt>
      <trkpt lat="43.8361" lon="0.67287">
        <ele>90.02</ele>
        <time>2020-03-31T13:22:38Z</time>
      </trkpt>
      <trkpt lat="43.83609" lon="0.67274">
        <ele>90.02</ele>
        <time>2020-03-31T13:22:45Z</time>
      </trkpt>
      <trkpt lat="43.83609" lon="0.67263">
        <ele>90.02</ele>
        <time>2020-03-31T13:22:52Z</time>
      </trkpt>
      <trkpt lat="43.83608" lon="0.67249">
        <ele>90.02</ele>
        <time>2020-03-31T13:22:58Z</time>
      </trkpt>
      <trkpt lat="43.83605" lon="0.67235">
        <ele>90.5</ele>
        <time>2020-03-31T13:23:07Z</time>
      </trkpt>
      <trkpt lat="43.83604" lon="0.67223">
        <ele>90.5</ele>
        <time>2020-03-31T13:23:15Z</time>
      </trkpt>
      <trkpt lat="43.83602" lon="0.67208">
        <ele>90.5</ele>
        <time>2020-03-31T13:23:21Z</time>
      </trkpt>
      <trkpt lat="43.836" lon="0.67194">
        <ele>90.98</ele>
        <time>2020-03-31T13:23:32Z</time>
      </trkpt>
      <trkpt lat="43.83598" lon="0.67177">
        <ele>90.98</ele>
        <time>2020-03-31T13:23:42Z</time>
      </trkpt>
      <trkpt lat="43.83595" lon="0.67164">
        <ele>91.46</ele>
        <time>2020-03-31T13:23:47Z</time>
      </trkpt>
      <trkpt lat="43.83595" lon="0.67148">
        <ele>91.46</ele>
        <time>2020-03-31T13:23:56Z</time>
      </trkpt>
      <trkpt lat="43.83602" lon="0.6714">
        <ele>91.94</ele>
        <time>2020-03-31T13:24:06Z</time>
      </trkpt>
      <trkpt lat="43.83613" lon="0.67138">
        <ele>91.94</ele>
        <time>2020-03-31T13:24:11Z</time>
      </trkpt>
      <trkpt lat="43.83621" lon="0.67137">
        <ele>91.94</ele>
        <time>2020-03-31T13:24:15Z</time>
      </trkpt>
      <trkpt lat="43.8363" lon="0.67135">
        <ele>91.94</ele>
        <time>2020-03-31T13:24:20Z</time>
      </trkpt>
      <trkpt lat="43.8364" lon="0.6713">
        <ele>91.94</ele>
        <time>2020-03-31T13:24:33Z</time>
      </trkpt>
      <trkpt lat="43.83651" lon="0.67126">
        <ele>91.94</ele>
        <time>2020-03-31T13:24:38Z</time>
      </trkpt>
      <trkpt lat="43.8366" lon="0.67124">
        <ele>91.94</ele>
        <time>2020-03-31T13:24:43Z</time>
      </trkpt>
      <trkpt lat="43.8367" lon="0.6712">
        <ele>92.42</ele>
        <time>2020-03-31T13:24:56Z</time>
      </trkpt>
      <trkpt lat="43.8368" lon="0.67115">
        <ele>91.94</ele>
        <time>2020-03-31T13:25:01Z</time>
      </trkpt>
      <trkpt lat="43.8369" lon="0.67111">
        <ele>91.94</ele>
        <time>2020-03-31T13:25:06Z</time>
      </trkpt>
      <trkpt lat="43.83699" lon="0.67107">
        <ele>91.94</ele>
        <time>2020-03-31T13:25:10Z</time>
      </trkpt>
      <trkpt lat="43.83705" lon="0.67103">
        <ele>91.94</ele>
        <time>2020-03-31T13:25:16Z</time>
      </trkpt>
      <trkpt lat="43.83713" lon="0.67098">
        <ele>91.94</ele>
        <time>2020-03-31T13:25:23Z</time>
      </trkpt>
      <trkpt lat="43.83722" lon="0.67096">
        <ele>91.94</ele>
        <time>2020-03-31T13:25:29Z</time>
      </trkpt>
      <trkpt lat="43.83731" lon="0.67093">
        <ele>91.94</ele>
        <time>2020-03-31T13:25:37Z</time>
      </trkpt>
      <trkpt lat="43.83739" lon="0.67088">
        <ele>91.94</ele>
        <time>2020-03-31T13:25:44Z</time>
      </trkpt>
      <trkpt lat="43.83748" lon="0.67081">
        <ele>91.94</ele>
        <time>2020-03-31T13:25:51Z</time>
      </trkpt>
      <trkpt lat="43.83756" lon="0.67074">
        <ele>91.94</ele>
        <time>2020-03-31T13:25:58Z</time>
      </trkpt>
      <trkpt lat="43.83766" lon="0.67069">
        <ele>91.94</ele>
        <time>2020-03-31T13:26:06Z</time>
      </trkpt>
      <trkpt lat="43.83774" lon="0.67062">
        <ele>91.94</ele>
        <time>2020-03-31T13:26:13Z</time>
      </trkpt>
      <trkpt lat="43.83783" lon="0.67057">
        <ele>91.94</ele>
        <time>2020-03-31T13:26:20Z</time>
      </trkpt>
      <trkpt lat="43.83792" lon="0.67052">
        <ele>91.94</ele>
        <time>2020-03-31T13:26:27Z</time>
      </trkpt>
      <trkpt lat="43.83799" lon="0.67043">
        <ele>91.94</ele>
        <time>2020-03-31T13:26:36Z</time>
      </trkpt>
      <trkpt lat="43.83808" lon="0.67037">
        <ele>90.5</ele>
        <time>2020-03-31T13:26:42Z</time>
      </trkpt>
      <trkpt lat="43.83817" lon="0.67031">
        <ele>90.5</ele>
        <time>2020-03-31T13:26:47Z</time>
      </trkpt>
      <trkpt lat="43.83825" lon="0.67026">
        <ele>90.5</ele>
        <time>2020-03-31T13:26:52Z</time>
      </trkpt>
      <trkpt lat="43.83834" lon="0.6702">
        <ele>90.5</ele>
        <time>2020-03-31T13:26:58Z</time>
      </trkpt>
      <trkpt lat="43.83842" lon="0.67015">
        <ele>90.5</ele>
        <time>2020-03-31T13:27:05Z</time>
      </trkpt>
      <trkpt lat="43.83851" lon="0.6701">
        <ele>90.5</ele>
        <time>2020-03-31T13:27:13Z</time>
      </trkpt>
      <trkpt lat="43.83862" lon="0.67004">
        <ele>90.5</ele>
        <time>2020-03-31T13:27:24Z</time>
      </trkpt>
      <trkpt lat="43.83873" lon="0.67001">
        <ele>90.5</ele>
        <time>2020-03-31T13:27:30Z</time>
      </trkpt>
      <trkpt lat="43.83881" lon="0.66997">
        <ele>91.94</ele>
        <time>2020-03-31T13:27:36Z</time>
      </trkpt>
      <trkpt lat="43.8389" lon="0.66992">
        <ele>91.94</ele>
        <time>2020-03-31T13:27:47Z</time>
      </trkpt>
      <trkpt lat="43.83903" lon="0.66987">
        <ele>91.94</ele>
        <time>2020-03-31T13:27:57Z</time>
      </trkpt>
      <trkpt lat="43.83913" lon="0.66986">
        <ele>92.42</ele>
        <time>2020-03-31T13:28:02Z</time>
      </trkpt>
      <trkpt lat="43.83924" lon="0.66981">
        <ele>92.42</ele>
        <time>2020-03-31T13:28:12Z</time>
      </trkpt>
      <trkpt lat="43.83937" lon="0.66977">
        <ele>92.42</ele>
        <time>2020-03-31T13:28:20Z</time>
      </trkpt>
      <trkpt lat="43.83949" lon="0.66975">
        <ele>92.42</ele>
        <time>2020-03-31T13:28:27Z</time>
      </trkpt>
      <trkpt lat="43.83959" lon="0.66971">
        <ele>92.42</ele>
        <time>2020-03-31T13:28:35Z</time>
      </trkpt>
      <trkpt lat="43.83968" lon="0.66969">
        <ele>92.42</ele>
        <time>2020-03-31T13:28:43Z</time>
      </trkpt>
      <trkpt lat="43.83979" lon="0.66967">
        <ele>92.42</ele>
        <time>2020-03-31T13:28:51Z</time>
      </trkpt>
      <trkpt lat="43.83989" lon="0.66964">
        <ele>91.46</ele>
        <time>2020-03-31T13:28:59Z</time>
      </trkpt>
      <trkpt lat="43.83999" lon="0.66962">
        <ele>92.42</ele>
        <time>2020-03-31T13:29:05Z</time>
      </trkpt>
      <trkpt lat="43.84009" lon="0.66959">
        <ele>92.42</ele>
        <time>2020-03-31T13:29:11Z</time>
      </trkpt>
      <trkpt lat="43.84019" lon="0.66957">
        <ele>91.94</ele>
        <time>2020-03-31T13:29:18Z</time>
      </trkpt>
      <trkpt lat="43.84029" lon="0.66954">
        <ele>91.94</ele>
        <time>2020-03-31T13:29:25Z</time>
      </trkpt>
      <trkpt lat="43.84039" lon="0.66952">
        <ele>91.94</ele>
        <time>2020-03-31T13:29:33Z</time>
      </trkpt>
      <trkpt lat="43.8405" lon="0.66948">
        <ele>91.94</ele>
        <time>2020-03-31T13:29:43Z</time>
      </trkpt>
      <trkpt lat="43.8406" lon="0.66943">
        <ele>91.94</ele>
        <time>2020-03-31T13:29:50Z</time>
      </trkpt>
      <trkpt lat="43.8407" lon="0.66937">
        <ele>91.46</ele>
        <time>2020-03-31T13:29:56Z</time>
      </trkpt>
      <trkpt lat="43.8408" lon="0.66931">
        <ele>91.46</ele>
        <time>2020-03-31T13:30:04Z</time>
      </trkpt>
      <trkpt lat="43.8409" lon="0.66923">
        <ele>91.46</ele>
        <time>2020-03-31T13:30:12Z</time>
      </trkpt>
      <trkpt lat="43.84097" lon="0.66914">
        <ele>91.46</ele>
        <time>2020-03-31T13:30:19Z</time>
      </trkpt>
      <trkpt lat="43.84105" lon="0.66904">
        <ele>92.42</ele>
        <time>2020-03-31T13:30:26Z</time>
      </trkpt>
      <trkpt lat="43.84112" lon="0.66894">
        <ele>91.46</ele>
        <time>2020-03-31T13:30:34Z</time>
      </trkpt>
      <trkpt lat="43.84121" lon="0.66883">
        <ele>92.42</ele>
        <time>2020-03-31T13:30:43Z</time>
      </trkpt>
      <trkpt lat="43.84127" lon="0.6687">
        <ele>92.42</ele>
        <time>2020-03-31T13:30:51Z</time>
      </trkpt>
      <trkpt lat="43.84135" lon="0.66861">
        <ele>92.42</ele>
        <time>2020-03-31T13:30:58Z</time>
      </trkpt>
      <trkpt lat="43.84143" lon="0.66851">
        <ele>92.42</ele>
        <time>2020-03-31T13:31:05Z</time>
      </trkpt>
      <trkpt lat="43.8415" lon="0.66841">
        <ele>91.46</ele>
        <time>2020-03-31T13:31:13Z</time>
      </trkpt>
      <trkpt lat="43.84156" lon="0.66827">
        <ele>91.46</ele>
        <time>2020-03-31T13:31:20Z</time>
      </trkpt>
      <trkpt lat="43.84163" lon="0.66815">
        <ele>91.46</ele>
        <time>2020-03-31T13:31:27Z</time>
      </trkpt>
      <trkpt lat="43.84172" lon="0.66806">
        <ele>91.46</ele>
        <time>2020-03-31T13:31:35Z</time>
      </trkpt>
      <trkpt lat="43.84181" lon="0.66799">
        <ele>91.46</ele>
        <time>2020-03-31T13:31:44Z</time>
      </trkpt>
      <trkpt lat="43.8419" lon="0.66791">
        <ele>91.46</ele>
        <time>2020-03-31T13:31:51Z</time>
      </trkpt>
      <trkpt lat="43.842" lon="0.66785">
        <ele>92.9</ele>
        <time>2020-03-31T13:31:57Z</time>
      </trkpt>
      <trkpt lat="43.8421" lon="0.6678">
        <ele>92.9</ele>
        <time>2020-03-31T13:32:04Z</time>
      </trkpt>
      <trkpt lat="43.8422" lon="0.66776">
        <ele>91.46</ele>
        <time>2020-03-31T13:32:12Z</time>
      </trkpt>
      <trkpt lat="43.8423" lon="0.66771">
        <ele>91.46</ele>
        <time>2020-03-31T13:32:19Z</time>
      </trkpt>
      <trkpt lat="43.8424" lon="0.66765">
        <ele>91.46</ele>
        <time>2020-03-31T13:32:27Z</time>
      </trkpt>
      <trkpt lat="43.8425" lon="0.66761">
        <ele>91.46</ele>
        <time>2020-03-31T13:32:33Z</time>
      </trkpt>
      <trkpt lat="43.84259" lon="0.66756">
        <ele>92.42</ele>
        <time>2020-03-31T13:32:39Z</time>
      </trkpt>
      <trkpt lat="43.84268" lon="0.66753">
        <ele>91.46</ele>
        <time>2020-03-31T13:32:46Z</time>
      </trkpt>
      <trkpt lat="43.84278" lon="0.66749">
        <ele>92.42</ele>
        <time>2020-03-31T13:32:54Z</time>
      </trkpt>
      <trkpt lat="43.84285" lon="0.66756">
        <ele>92.9</ele>
        <time>2020-03-31T13:33:02Z</time>
      </trkpt>
      <trkpt lat="43.84288" lon="0.6677">
        <ele>93.39</ele>
        <time>2020-03-31T13:33:09Z</time>
      </trkpt>
      <trkpt lat="43.84291" lon="0.66783">
        <ele>93.39</ele>
        <time>2020-03-31T13:33:15Z</time>
      </trkpt>
      <trkpt lat="43.84293" lon="0.66796">
        <ele>93.39</ele>
        <time>2020-03-31T13:33:22Z</time>
      </trkpt>
      <trkpt lat="43.84295" lon="0.66811">
        <ele>93.39</ele>
        <time>2020-03-31T13:33:30Z</time>
      </trkpt>
      <trkpt lat="43.84298" lon="0.66826">
        <ele>91.94</ele>
        <time>2020-03-31T13:33:39Z</time>
      </trkpt>
      <trkpt lat="43.84301" lon="0.66844">
        <ele>91.94</ele>
        <time>2020-03-31T13:33:48Z</time>
      </trkpt>
      <trkpt lat="43.84303" lon="0.6686">
        <ele>91.46</ele>
        <time>2020-03-31T13:33:55Z</time>
      </trkpt>
      <trkpt lat="43.84305" lon="0.66875">
        <ele>90.98</ele>
        <time>2020-03-31T13:34:03Z</time>
      </trkpt>
      <trkpt lat="43.84309" lon="0.6689">
        <ele>90.02</ele>
        <time>2020-03-31T13:34:11Z</time>
      </trkpt>
      <trkpt lat="43.84314" lon="0.66903">
        <ele>90.02</ele>
        <time>2020-03-31T13:34:19Z</time>
      </trkpt>
      <trkpt lat="43.84324" lon="0.66906">
        <ele>90.02</ele>
        <time>2020-03-31T13:34:28Z</time>
      </trkpt>
      <trkpt lat="43.84334" lon="0.66902">
        <ele>90.5</ele>
        <time>2020-03-31T13:34:36Z</time>
      </trkpt>
      <trkpt lat="43.84345" lon="0.66897">
        <ele>90.5</ele>
        <time>2020-03-31T13:34:42Z</time>
      </trkpt>
      <trkpt lat="43.84354" lon="0.66894">
        <ele>90.5</ele>
        <time>2020-03-31T13:34:48Z</time>
      </trkpt>
      <trkpt lat="43.84364" lon="0.66891">
        <ele>91.46</ele>
        <time>2020-03-31T13:34:56Z</time>
      </trkpt>
      <trkpt lat="43.84374" lon="0.66888">
        <ele>91.46</ele>
        <time>2020-03-31T13:35:03Z</time>
      </trkpt>
      <trkpt lat="43.84384" lon="0.66885">
        <ele>91.94</ele>
        <time>2020-03-31T13:35:09Z</time>
      </trkpt>
      <trkpt lat="43.84393" lon="0.66881">
        <ele>92.42</ele>
        <time>2020-03-31T13:35:17Z</time>
      </trkpt>
      <trkpt lat="43.84405" lon="0.6688">
        <ele>92.9</ele>
        <time>2020-03-31T13:35:27Z</time>
      </trkpt>
      <trkpt lat="43.84415" lon="0.66876">
        <ele>93.39</ele>
        <time>2020-03-31T13:35:34Z</time>
      </trkpt>
      <trkpt lat="43.84427" lon="0.66873">
        <ele>93.39</ele>
        <time>2020-03-31T13:35:40Z</time>
      </trkpt>
      <trkpt lat="43.84436" lon="0.66869">
        <ele>93.39</ele>
        <time>2020-03-31T13:35:47Z</time>
      </trkpt>
      <trkpt lat="43.84446" lon="0.66866">
        <ele>93.39</ele>
        <time>2020-03-31T13:35:56Z</time>
      </trkpt>
      <trkpt lat="43.84455" lon="0.66861">
        <ele>93.39</ele>
        <time>2020-03-31T13:36:04Z</time>
      </trkpt>
      <trkpt lat="43.84465" lon="0.66858">
        <ele>93.39</ele>
        <time>2020-03-31T13:36:10Z</time>
      </trkpt>
      <trkpt lat="43.84475" lon="0.66855">
        <ele>93.39</ele>
        <time>2020-03-31T13:36:17Z</time>
      </trkpt>
      <trkpt lat="43.84485" lon="0.66851">
        <ele>93.39</ele>
        <time>2020-03-31T13:36:26Z</time>
      </trkpt>
      <trkpt lat="43.84497" lon="0.66845">
        <ele>91.94</ele>
        <time>2020-03-31T13:36:36Z</time>
      </trkpt>
      <trkpt lat="43.84508" lon="0.66842">
        <ele>92.42</ele>
        <time>2020-03-31T13:36:45Z</time>
      </trkpt>
      <trkpt lat="43.84519" lon="0.66839">
        <ele>90.98</ele>
        <time>2020-03-31T13:36:53Z</time>
      </trkpt>
      <trkpt lat="43.8453" lon="0.66834">
        <ele>90.5</ele>
        <time>2020-03-31T13:37:02Z</time>
      </trkpt>
      <trkpt lat="43.84541" lon="0.66831">
        <ele>90.5</ele>
        <time>2020-03-31T13:37:08Z</time>
      </trkpt>
      <trkpt lat="43.84551" lon="0.66827">
        <ele>90.5</ele>
        <time>2020-03-31T13:37:15Z</time>
      </trkpt>
      <trkpt lat="43.84562" lon="0.66829">
        <ele>90.5</ele>
        <time>2020-03-31T13:37:26Z</time>
      </trkpt>
      <trkpt lat="43.84566" lon="0.66843">
        <ele>90.02</ele>
        <time>2020-03-31T13:37:33Z</time>
      </trkpt>
      <trkpt lat="43.8457" lon="0.66855">
        <ele>90.02</ele>
        <time>2020-03-31T13:37:40Z</time>
      </trkpt>
      <trkpt lat="43.84576" lon="0.66864">
        <ele>89.06</ele>
        <time>2020-03-31T13:37:46Z</time>
      </trkpt>
      <trkpt lat="43.8458" lon="0.66877">
        <ele>88.1</ele>
        <time>2020-03-31T13:37:55Z</time>
      </trkpt>
      <trkpt lat="43.84581" lon="0.66901">
        <ele>87.14</ele>
        <time>2020-03-31T13:38:09Z</time>
      </trkpt>
      <trkpt lat="43.84572" lon="0.66906">
        <ele>86.18</ele>
        <time>2020-03-31T13:38:17Z</time>
      </trkpt>
      <trkpt lat="43.84561" lon="0.66908">
        <ele>86.66</ele>
        <time>2020-03-31T13:38:26Z</time>
      </trkpt>
      <trkpt lat="43.8455" lon="0.66912">
        <ele>86.18</ele>
        <time>2020-03-31T13:38:35Z</time>
      </trkpt>
      <trkpt lat="43.84538" lon="0.66917">
        <ele>86.18</ele>
        <time>2020-03-31T13:38:43Z</time>
      </trkpt>
      <trkpt lat="43.84527" lon="0.66924">
        <ele>86.18</ele>
        <time>2020-03-31T13:38:50Z</time>
      </trkpt>
      <trkpt lat="43.84516" lon="0.66929">
        <ele>87.62</ele>
        <time>2020-03-31T13:38:57Z</time>
      </trkpt>
      <trkpt lat="43.84507" lon="0.66934">
        <ele>87.62</ele>
        <time>2020-03-31T13:39:05Z</time>
      </trkpt>
      <trkpt lat="43.84498" lon="0.6694">
        <ele>87.62</ele>
        <time>2020-03-31T13:39:11Z</time>
      </trkpt>
      <trkpt lat="43.84489" lon="0.66946">
        <ele>87.62</ele>
        <time>2020-03-31T13:39:19Z</time>
      </trkpt>
      <trkpt lat="43.84478" lon="0.66952">
        <ele>87.62</ele>
        <time>2020-03-31T13:39:28Z</time>
      </trkpt>
      <trkpt lat="43.84467" lon="0.66959">
        <ele>88.58</ele>
        <time>2020-03-31T13:39:37Z</time>
      </trkpt>
      <trkpt lat="43.84456" lon="0.66967">
        <ele>88.58</ele>
        <time>2020-03-31T13:39:46Z</time>
      </trkpt>
      <trkpt lat="43.84446" lon="0.66975">
        <ele>86.66</ele>
        <time>2020-03-31T13:39:54Z</time>
      </trkpt>
      <trkpt lat="43.84447" lon="0.66993">
        <ele>86.66</ele>
        <time>2020-03-31T13:40:06Z</time>
      </trkpt>
      <trkpt lat="43.84455" lon="0.67005">
        <ele>86.66</ele>
        <time>2020-03-31T13:40:18Z</time>
      </trkpt>
      <trkpt lat="43.84463" lon="0.67013">
        <ele>86.66</ele>
        <time>2020-03-31T13:40:22Z</time>
      </trkpt>
      <trkpt lat="43.84469" lon="0.67024">
        <ele>86.66</ele>
        <time>2020-03-31T13:40:27Z</time>
      </trkpt>
      <trkpt lat="43.84474" lon="0.67034">
        <ele>86.66</ele>
        <time>2020-03-31T13:40:35Z</time>
      </trkpt>
      <trkpt lat="43.8448" lon="0.67047">
        <ele>86.66</ele>
        <time>2020-03-31T13:40:41Z</time>
      </trkpt>
      <trkpt lat="43.84486" lon="0.67056">
        <ele>86.66</ele>
        <time>2020-03-31T13:40:46Z</time>
      </trkpt>
      <trkpt lat="43.84492" lon="0.67066">
        <ele>86.66</ele>
        <time>2020-03-31T13:40:55Z</time>
      </trkpt>
      <trkpt lat="43.84498" lon="0.67077">
        <ele>86.66</ele>
        <time>2020-03-31T13:41:05Z</time>
      </trkpt>
      <trkpt lat="43.84503" lon="0.67086">
        <ele>86.66</ele>
        <time>2020-03-31T13:41:10Z</time>
      </trkpt>
      <trkpt lat="43.84511" lon="0.67099">
        <ele>86.66</ele>
        <time>2020-03-31T13:41:20Z</time>
      </trkpt>
      <trkpt lat="43.84516" lon="0.67109">
        <ele>86.66</ele>
        <time>2020-03-31T13:41:25Z</time>
      </trkpt>
      <trkpt lat="43.84523" lon="0.67123">
        <ele>86.66</ele>
        <time>2020-03-31T13:41:36Z</time>
      </trkpt>
      <trkpt lat="43.8453" lon="0.67131">
        <ele>86.66</ele>
        <time>2020-03-31T13:41:40Z</time>
      </trkpt>
      <trkpt lat="43.84535" lon="0.67139">
        <ele>86.66</ele>
        <time>2020-03-31T13:41:45Z</time>
      </trkpt>
      <trkpt lat="43.84544" lon="0.67145">
        <ele>86.66</ele>
        <time>2020-03-31T13:41:57Z</time>
      </trkpt>
      <trkpt lat="43.84554" lon="0.67148">
        <ele>86.66</ele>
        <time>2020-03-31T13:42:02Z</time>
      </trkpt>
      <trkpt lat="43.84564" lon="0.67151">
        <ele>86.66</ele>
        <time>2020-03-31T13:42:06Z</time>
      </trkpt>
      <trkpt lat="43.84573" lon="0.67153">
        <ele>86.66</ele>
        <time>2020-03-31T13:42:14Z</time>
      </trkpt>
      <trkpt lat="43.84583" lon="0.67152">
        <ele>86.66</ele>
        <time>2020-03-31T13:42:22Z</time>
      </trkpt>
      <trkpt lat="43.84593" lon="0.67148">
        <ele>86.18</ele>
        <time>2020-03-31T13:42:33Z</time>
      </trkpt>
      <trkpt lat="43.84602" lon="0.67142">
        <ele>86.18</ele>
        <time>2020-03-31T13:42:39Z</time>
      </trkpt>
      <trkpt lat="43.84612" lon="0.67137">
        <ele>86.18</ele>
        <time>2020-03-31T13:42:48Z</time>
      </trkpt>
      <trkpt lat="43.8462" lon="0.6713">
        <ele>86.18</ele>
        <time>2020-03-31T13:42:55Z</time>
      </trkpt>
      <trkpt lat="43.84628" lon="0.67119">
        <ele>86.18</ele>
        <time>2020-03-31T13:43:03Z</time>
      </trkpt>
      <trkpt lat="43.84635" lon="0.67106">
        <ele>86.18</ele>
        <time>2020-03-31T13:43:14Z</time>
      </trkpt>
      <trkpt lat="43.84639" lon="0.67095">
        <ele>86.18</ele>
        <time>2020-03-31T13:43:20Z</time>
      </trkpt>
      <trkpt lat="43.84651" lon="0.67094">
        <ele>85.69</ele>
        <time>2020-03-31T13:43:29Z</time>
      </trkpt>
      <trkpt lat="43.8466" lon="0.67095">
        <ele>85.69</ele>
        <time>2020-03-31T13:43:35Z</time>
      </trkpt>
      <trkpt lat="43.8467" lon="0.67098">
        <ele>85.69</ele>
        <time>2020-03-31T13:43:43Z</time>
      </trkpt>
      <trkpt lat="43.84676" lon="0.67107">
        <ele>85.69</ele>
        <time>2020-03-31T13:43:52Z</time>
      </trkpt>
      <trkpt lat="43.84682" lon="0.6712">
        <ele>87.62</ele>
        <time>2020-03-31T13:44:02Z</time>
      </trkpt>
      <trkpt lat="43.84685" lon="0.67133">
        <ele>88.1</ele>
        <time>2020-03-31T13:44:11Z</time>
      </trkpt>
      <trkpt lat="43.84689" lon="0.67145">
        <ele>88.1</ele>
        <time>2020-03-31T13:44:18Z</time>
      </trkpt>
      <trkpt lat="43.84698" lon="0.67153">
        <ele>86.18</ele>
        <time>2020-03-31T13:44:29Z</time>
      </trkpt>
      <trkpt lat="43.84707" lon="0.67153">
        <ele>86.18</ele>
        <time>2020-03-31T13:44:34Z</time>
      </trkpt>
      <trkpt lat="43.84718" lon="0.67156">
        <ele>86.18</ele>
        <time>2020-03-31T13:44:46Z</time>
      </trkpt>
      <trkpt lat="43.84726" lon="0.67164">
        <ele>86.18</ele>
        <time>2020-03-31T13:44:51Z</time>
      </trkpt>
      <trkpt lat="43.84737" lon="0.67165">
        <ele>86.18</ele>
        <time>2020-03-31T13:45:00Z</time>
      </trkpt>
      <trkpt lat="43.84746" lon="0.67164">
        <ele>86.18</ele>
        <time>2020-03-31T13:45:07Z</time>
      </trkpt>
      <trkpt lat="43.84757" lon="0.67164">
        <ele>86.18</ele>
        <time>2020-03-31T13:45:14Z</time>
      </trkpt>
      <trkpt lat="43.84766" lon="0.67167">
        <ele>86.18</ele>
        <time>2020-03-31T13:45:20Z</time>
      </trkpt>
      <trkpt lat="43.84775" lon="0.67169">
        <ele>86.18</ele>
        <time>2020-03-31T13:45:28Z</time>
      </trkpt>
      <trkpt lat="43.84783" lon="0.6716">
        <ele>86.18</ele>
        <time>2020-03-31T13:45:37Z</time>
      </trkpt>
      <trkpt lat="43.84791" lon="0.67153">
        <ele>86.18</ele>
        <time>2020-03-31T13:45:46Z</time>
      </trkpt>
      <trkpt lat="43.84801" lon="0.67149">
        <ele>88.1</ele>
        <time>2020-03-31T13:45:57Z</time>
      </trkpt>
      <trkpt lat="43.84802" lon="0.67136">
        <ele>89.54</ele>
        <time>2020-03-31T13:46:07Z</time>
      </trkpt>
      <trkpt lat="43.848" lon="0.67124">
        <ele>89.54</ele>
        <time>2020-03-31T13:46:12Z</time>
      </trkpt>
      <trkpt lat="43.84799" lon="0.67108">
        <ele>89.54</ele>
        <time>2020-03-31T13:46:25Z</time>
      </trkpt>
      <trkpt lat="43.84798" lon="0.67094">
        <ele>89.54</ele>
        <time>2020-03-31T13:46:30Z</time>
      </trkpt>
      <trkpt lat="43.84796" lon="0.67077">
        <ele>89.54</ele>
        <time>2020-03-31T13:46:41Z</time>
      </trkpt>
      <trkpt lat="43.8479" lon="0.67065">
        <ele>88.58</ele>
        <time>2020-03-31T13:46:52Z</time>
      </trkpt>
      <trkpt lat="43.84781" lon="0.6706">
        <ele>88.58</ele>
        <time>2020-03-31T13:46:57Z</time>
      </trkpt>
      <trkpt lat="43.84772" lon="0.67056">
        <ele>87.62</ele>
        <time>2020-03-31T13:47:05Z</time>
      </trkpt>
      <trkpt lat="43.84761" lon="0.6706">
        <ele>87.62</ele>
        <time>2020-03-31T13:47:13Z</time>
      </trkpt>
      <trkpt lat="43.84752" lon="0.67061">
        <ele>88.1</ele>
        <time>2020-03-31T13:47:18Z</time>
      </trkpt>
      <trkpt lat="43.84743" lon="0.67053">
        <ele>87.62</ele>
        <time>2020-03-31T13:47:28Z</time>
      </trkpt>
      <trkpt lat="43.84735" lon="0.67045">
        <ele>87.62</ele>
        <time>2020-03-31T13:47:33Z</time>
      </trkpt>
      <trkpt lat="43.84728" lon="0.67033">
        <ele>87.14</ele>
        <time>2020-03-31T13:47:45Z</time>
      </trkpt>
      <trkpt lat="43.8472" lon="0.67029">
        <ele>86.66</ele>
        <time>2020-03-31T13:47:59Z</time>
      </trkpt>
      <trkpt lat="43.84715" lon="0.67013">
        <ele>87.14</ele>
        <time>2020-03-31T13:48:08Z</time>
      </trkpt>
      <trkpt lat="43.84711" lon="0.67">
        <ele>87.14</ele>
        <time>2020-03-31T13:48:12Z</time>
      </trkpt>
      <trkpt lat="43.84707" lon="0.66986">
        <ele>87.14</ele>
        <time>2020-03-31T13:48:17Z</time>
      </trkpt>
      <trkpt lat="43.84699" lon="0.66968">
        <ele>87.14</ele>
        <time>2020-03-31T13:48:31Z</time>
      </trkpt>
      <trkpt lat="43.84691" lon="0.66957">
        <ele>87.14</ele>
        <time>2020-03-31T13:48:36Z</time>
      </trkpt>
      <trkpt lat="43.84681" lon="0.66958">
        <ele>86.66</ele>
        <time>2020-03-31T13:48:47Z</time>
      </trkpt>
      <trkpt lat="43.84671" lon="0.66961">
        <ele>86.66</ele>
        <time>2020-03-31T13:48:52Z</time>
      </trkpt>
      <trkpt lat="43.84663" lon="0.66963">
        <ele>86.66</ele>
        <time>2020-03-31T13:48:58Z</time>
      </trkpt>
      <trkpt lat="43.84651" lon="0.66964">
        <ele>86.66</ele>
        <time>2020-03-31T13:49:08Z</time>
      </trkpt>
      <trkpt lat="43.84645" lon="0.66954">
        <ele>86.18</ele>
        <time>2020-03-31T13:49:12Z</time>
      </trkpt>
      <trkpt lat="43.84641" lon="0.66943">
        <ele>86.18</ele>
        <time>2020-03-31T13:49:22Z</time>
      </trkpt>
      <trkpt lat="43.84635" lon="0.66932">
        <ele>86.18</ele>
        <time>2020-03-31T13:49:27Z</time>
      </trkpt>
      <trkpt lat="43.84628" lon="0.66922">
        <ele>86.18</ele>
        <time>2020-03-31T13:49:38Z</time>
      </trkpt>
      <trkpt lat="43.84619" lon="0.66914">
        <ele>86.18</ele>
        <time>2020-03-31T13:49:44Z</time>
      </trkpt>
      <trkpt lat="43.84611" lon="0.66906">
        <ele>86.18</ele>
        <time>2020-03-31T13:49:50Z</time>
      </trkpt>
      <trkpt lat="43.84601" lon="0.66903">
        <ele>86.18</ele>
        <time>2020-03-31T13:49:58Z</time>
      </trkpt>
      <trkpt lat="43.84593" lon="0.66903">
        <ele>86.18</ele>
        <time>2020-03-31T13:50:03Z</time>
      </trkpt>
      <trkpt lat="43.84583" lon="0.66905">
        <ele>86.18</ele>
        <time>2020-03-31T13:50:13Z</time>
      </trkpt>
      <trkpt lat="43.84573" lon="0.66908">
        <ele>86.18</ele>
        <time>2020-03-31T13:50:20Z</time>
      </trkpt>
      <trkpt lat="43.84562" lon="0.66913">
        <ele>86.18</ele>
        <time>2020-03-31T13:50:28Z</time>
      </trkpt>
      <trkpt lat="43.84551" lon="0.66915">
        <ele>86.18</ele>
        <time>2020-03-31T13:50:38Z</time>
      </trkpt>
      <trkpt lat="43.84541" lon="0.66916">
        <ele>87.62</ele>
        <time>2020-03-31T13:50:44Z</time>
      </trkpt>
      <trkpt lat="43.84531" lon="0.66918">
        <ele>87.62</ele>
        <time>2020-03-31T13:50:52Z</time>
      </trkpt>
      <trkpt lat="43.84528" lon="0.66923">
        <ele>88.1</ele>
        <time>2020-03-31T13:52:43Z</time>
      </trkpt>
      <trkpt lat="43.84523" lon="0.66923">
        <ele>87.62</ele>
        <time>2020-03-31T13:53:48Z</time>
      </trkpt>
      <trkpt lat="43.8452" lon="0.66927">
        <ele>88.1</ele>
        <time>2020-03-31T13:54:11Z</time>
      </trkpt>
      <trkpt lat="43.8451" lon="0.66933">
        <ele>88.1</ele>
        <time>2020-03-31T13:54:16Z</time>
      </trkpt>
      <trkpt lat="43.84503" lon="0.66938">
        <ele>88.1</ele>
        <time>2020-03-31T13:54:20Z</time>
      </trkpt>
      <trkpt lat="43.84494" lon="0.66942">
        <ele>88.1</ele>
        <time>2020-03-31T13:54:24Z</time>
      </trkpt>
      <trkpt lat="43.84486" lon="0.66945">
        <ele>88.1</ele>
        <time>2020-03-31T13:54:28Z</time>
      </trkpt>
      <trkpt lat="43.84478" lon="0.66949">
        <ele>88.1</ele>
        <time>2020-03-31T13:54:34Z</time>
      </trkpt>
      <trkpt lat="43.84471" lon="0.66954">
        <ele>88.1</ele>
        <time>2020-03-31T13:54:40Z</time>
      </trkpt>
      <trkpt lat="43.84465" lon="0.66958">
        <ele>88.1</ele>
        <time>2020-03-31T13:54:46Z</time>
      </trkpt>
      <trkpt lat="43.84459" lon="0.66963">
        <ele>88.1</ele>
        <time>2020-03-31T13:54:54Z</time>
      </trkpt>
      <trkpt lat="43.8445" lon="0.6697">
        <ele>87.62</ele>
        <time>2020-03-31T13:55:03Z</time>
      </trkpt>
      <trkpt lat="43.84444" lon="0.66982">
        <ele>87.62</ele>
        <time>2020-03-31T13:55:12Z</time>
      </trkpt>
      <trkpt lat="43.8445" lon="0.66996">
        <ele>87.62</ele>
        <time>2020-03-31T13:55:21Z</time>
      </trkpt>
      <trkpt lat="43.8446" lon="0.67008">
        <ele>87.62</ele>
        <time>2020-03-31T13:55:29Z</time>
      </trkpt>
      <trkpt lat="43.84469" lon="0.6702">
        <ele>87.62</ele>
        <time>2020-03-31T13:55:37Z</time>
      </trkpt>
      <trkpt lat="43.84473" lon="0.67034">
        <ele>87.62</ele>
        <time>2020-03-31T13:55:46Z</time>
      </trkpt>
      <trkpt lat="43.84478" lon="0.67048">
        <ele>86.66</ele>
        <time>2020-03-31T13:55:56Z</time>
      </trkpt>
      <trkpt lat="43.84485" lon="0.67062">
        <ele>86.18</ele>
        <time>2020-03-31T13:56:06Z</time>
      </trkpt>
      <trkpt lat="43.84493" lon="0.67076">
        <ele>85.69</ele>
        <time>2020-03-31T13:56:16Z</time>
      </trkpt>
      <trkpt lat="43.84501" lon="0.67088">
        <ele>85.69</ele>
        <time>2020-03-31T13:56:24Z</time>
      </trkpt>
      <trkpt lat="43.84508" lon="0.67103">
        <ele>85.69</ele>
        <time>2020-03-31T13:56:34Z</time>
      </trkpt>
      <trkpt lat="43.84515" lon="0.67116">
        <ele>85.69</ele>
        <time>2020-03-31T13:56:42Z</time>
      </trkpt>
      <trkpt lat="43.84524" lon="0.67128">
        <ele>85.69</ele>
        <time>2020-03-31T13:56:52Z</time>
      </trkpt>
      <trkpt lat="43.84533" lon="0.67138">
        <ele>85.69</ele>
        <time>2020-03-31T13:57:00Z</time>
      </trkpt>
      <trkpt lat="43.84543" lon="0.67145">
        <ele>85.69</ele>
        <time>2020-03-31T13:57:08Z</time>
      </trkpt>
      <trkpt lat="43.84553" lon="0.67149">
        <ele>85.21</ele>
        <time>2020-03-31T13:57:16Z</time>
      </trkpt>
      <trkpt lat="43.84566" lon="0.67152">
        <ele>85.21</ele>
        <time>2020-03-31T13:57:26Z</time>
      </trkpt>
      <trkpt lat="43.8458" lon="0.67151">
        <ele>85.21</ele>
        <time>2020-03-31T13:57:36Z</time>
      </trkpt>
      <trkpt lat="43.84592" lon="0.67148">
        <ele>85.21</ele>
        <time>2020-03-31T13:57:46Z</time>
      </trkpt>
      <trkpt lat="43.84603" lon="0.67143">
        <ele>85.21</ele>
        <time>2020-03-31T13:57:55Z</time>
      </trkpt>
      <trkpt lat="43.84614" lon="0.67135">
        <ele>85.21</ele>
        <time>2020-03-31T13:58:04Z</time>
      </trkpt>
      <trkpt lat="43.84623" lon="0.67128">
        <ele>85.21</ele>
        <time>2020-03-31T13:58:12Z</time>
      </trkpt>
      <trkpt lat="43.84633" lon="0.67117">
        <ele>85.21</ele>
        <time>2020-03-31T13:58:20Z</time>
      </trkpt>
      <trkpt lat="43.84639" lon="0.67104">
        <ele>85.21</ele>
        <time>2020-03-31T13:58:28Z</time>
      </trkpt>
      <trkpt lat="43.84644" lon="0.67089">
        <ele>85.21</ele>
        <time>2020-03-31T13:58:37Z</time>
      </trkpt>
      <trkpt lat="43.84645" lon="0.67074">
        <ele>84.73</ele>
        <time>2020-03-31T13:58:45Z</time>
      </trkpt>
      <trkpt lat="43.84645" lon="0.67058">
        <ele>84.25</ele>
        <time>2020-03-31T13:58:56Z</time>
      </trkpt>
      <trkpt lat="43.84644" lon="0.67041">
        <ele>85.69</ele>
        <time>2020-03-31T13:59:06Z</time>
      </trkpt>
      <trkpt lat="43.84647" lon="0.67022">
        <ele>85.21</ele>
        <time>2020-03-31T13:59:15Z</time>
      </trkpt>
      <trkpt lat="43.8465" lon="0.67009">
        <ele>85.21</ele>
        <time>2020-03-31T13:59:24Z</time>
      </trkpt>
      <trkpt lat="43.84652" lon="0.66996">
        <ele>85.21</ele>
        <time>2020-03-31T13:59:33Z</time>
      </trkpt>
      <trkpt lat="43.84654" lon="0.66981">
        <ele>85.21</ele>
        <time>2020-03-31T13:59:41Z</time>
      </trkpt>
      <trkpt lat="43.84652" lon="0.66969">
        <ele>85.21</ele>
        <time>2020-03-31T13:59:48Z</time>
      </trkpt>
      <trkpt lat="43.84649" lon="0.66957">
        <ele>85.21</ele>
        <time>2020-03-31T13:59:56Z</time>
      </trkpt>
      <trkpt lat="43.84644" lon="0.66944">
        <ele>85.21</ele>
        <time>2020-03-31T14:00:04Z</time>
      </trkpt>
      <trkpt lat="43.84639" lon="0.66931">
        <ele>83.77</ele>
        <time>2020-03-31T14:00:12Z</time>
      </trkpt>
      <trkpt lat="43.84633" lon="0.6692">
        <ele>83.77</ele>
        <time>2020-03-31T14:00:22Z</time>
      </trkpt>
      <trkpt lat="43.84624" lon="0.66911">
        <ele>83.77</ele>
        <time>2020-03-31T14:00:30Z</time>
      </trkpt>
      <trkpt lat="43.84614" lon="0.66903">
        <ele>84.73</ele>
        <time>2020-03-31T14:00:39Z</time>
      </trkpt>
      <trkpt lat="43.84603" lon="0.66899">
        <ele>84.73</ele>
        <time>2020-03-31T14:00:47Z</time>
      </trkpt>
      <trkpt lat="43.84594" lon="0.66895">
        <ele>85.21</ele>
        <time>2020-03-31T14:00:56Z</time>
      </trkpt>
      <trkpt lat="43.84586" lon="0.6688">
        <ele>85.69</ele>
        <time>2020-03-31T14:01:09Z</time>
      </trkpt>
      <trkpt lat="43.84582" lon="0.66865">
        <ele>87.14</ele>
        <time>2020-03-31T14:01:17Z</time>
      </trkpt>
      <trkpt lat="43.84577" lon="0.66852">
        <ele>87.62</ele>
        <time>2020-03-31T14:01:24Z</time>
      </trkpt>
      <trkpt lat="43.8457" lon="0.66841">
        <ele>88.58</ele>
        <time>2020-03-31T14:01:32Z</time>
      </trkpt>
      <trkpt lat="43.84566" lon="0.66828">
        <ele>89.06</ele>
        <time>2020-03-31T14:01:40Z</time>
      </trkpt>
      <trkpt lat="43.84563" lon="0.66811">
        <ele>89.54</ele>
        <time>2020-03-31T14:01:50Z</time>
      </trkpt>
      <trkpt lat="43.84558" lon="0.66797">
        <ele>89.54</ele>
        <time>2020-03-31T14:01:58Z</time>
      </trkpt>
      <trkpt lat="43.84553" lon="0.66784">
        <ele>89.54</ele>
        <time>2020-03-31T14:02:05Z</time>
      </trkpt>
      <trkpt lat="43.8455" lon="0.66771">
        <ele>90.02</ele>
        <time>2020-03-31T14:02:13Z</time>
      </trkpt>
      <trkpt lat="43.84547" lon="0.66757">
        <ele>90.5</ele>
        <time>2020-03-31T14:02:21Z</time>
      </trkpt>
      <trkpt lat="43.84542" lon="0.66745">
        <ele>91.46</ele>
        <time>2020-03-31T14:02:28Z</time>
      </trkpt>
      <trkpt lat="43.8454" lon="0.66731">
        <ele>91.46</ele>
        <time>2020-03-31T14:02:36Z</time>
      </trkpt>
      <trkpt lat="43.84535" lon="0.66719">
        <ele>91.46</ele>
        <time>2020-03-31T14:02:44Z</time>
      </trkpt>
      <trkpt lat="43.84531" lon="0.66705">
        <ele>91.46</ele>
        <time>2020-03-31T14:02:52Z</time>
      </trkpt>
      <trkpt lat="43.84525" lon="0.66689">
        <ele>91.94</ele>
        <time>2020-03-31T14:03:02Z</time>
      </trkpt>
      <trkpt lat="43.84521" lon="0.66677">
        <ele>91.94</ele>
        <time>2020-03-31T14:03:09Z</time>
      </trkpt>
      <trkpt lat="43.84517" lon="0.66662">
        <ele>91.94</ele>
        <time>2020-03-31T14:03:17Z</time>
      </trkpt>
      <trkpt lat="43.84514" lon="0.66648">
        <ele>91.94</ele>
        <time>2020-03-31T14:03:26Z</time>
      </trkpt>
      <trkpt lat="43.8451" lon="0.66634">
        <ele>91.94</ele>
        <time>2020-03-31T14:03:34Z</time>
      </trkpt>
      <trkpt lat="43.84505" lon="0.6662">
        <ele>90.5</ele>
        <time>2020-03-31T14:03:43Z</time>
      </trkpt>
      <trkpt lat="43.84501" lon="0.66605">
        <ele>90.5</ele>
        <time>2020-03-31T14:03:52Z</time>
      </trkpt>
      <trkpt lat="43.84497" lon="0.66589">
        <ele>90.5</ele>
        <time>2020-03-31T14:04:02Z</time>
      </trkpt>
      <trkpt lat="43.84487" lon="0.66589">
        <ele>90.5</ele>
        <time>2020-03-31T14:04:10Z</time>
      </trkpt>
      <trkpt lat="43.84477" lon="0.66597">
        <ele>90.5</ele>
        <time>2020-03-31T14:04:18Z</time>
      </trkpt>
      <trkpt lat="43.84469" lon="0.66607">
        <ele>90.5</ele>
        <time>2020-03-31T14:04:26Z</time>
      </trkpt>
      <trkpt lat="43.8446" lon="0.66616">
        <ele>90.5</ele>
        <time>2020-03-31T14:04:34Z</time>
      </trkpt>
      <trkpt lat="43.84451" lon="0.66623">
        <ele>90.5</ele>
        <time>2020-03-31T14:04:42Z</time>
      </trkpt>
      <trkpt lat="43.84442" lon="0.66631">
        <ele>90.5</ele>
        <time>2020-03-31T14:04:49Z</time>
      </trkpt>
      <trkpt lat="43.84432" lon="0.66635">
        <ele>90.5</ele>
        <time>2020-03-31T14:04:57Z</time>
      </trkpt>
      <trkpt lat="43.84423" lon="0.66639">
        <ele>90.5</ele>
        <time>2020-03-31T14:05:04Z</time>
      </trkpt>
      <trkpt lat="43.84413" lon="0.66645">
        <ele>90.5</ele>
        <time>2020-03-31T14:05:12Z</time>
      </trkpt>
      <trkpt lat="43.84405" lon="0.66653">
        <ele>91.46</ele>
        <time>2020-03-31T14:05:20Z</time>
      </trkpt>
      <trkpt lat="43.84395" lon="0.6666">
        <ele>90.98</ele>
        <time>2020-03-31T14:05:27Z</time>
      </trkpt>
      <trkpt lat="43.84387" lon="0.66666">
        <ele>90.98</ele>
        <time>2020-03-31T14:05:32Z</time>
      </trkpt>
      <trkpt lat="43.84378" lon="0.66671">
        <ele>90.98</ele>
        <time>2020-03-31T14:05:37Z</time>
      </trkpt>
      <trkpt lat="43.84371" lon="0.66675">
        <ele>90.98</ele>
        <time>2020-03-31T14:05:43Z</time>
      </trkpt>
      <trkpt lat="43.84364" lon="0.66682">
        <ele>90.98</ele>
        <time>2020-03-31T14:05:54Z</time>
      </trkpt>
      <trkpt lat="43.8435" lon="0.66692">
        <ele>90.98</ele>
        <time>2020-03-31T14:06:07Z</time>
      </trkpt>
      <trkpt lat="43.84339" lon="0.66703">
        <ele>90.98</ele>
        <time>2020-03-31T14:06:14Z</time>
      </trkpt>
      <trkpt lat="43.84331" lon="0.66711">
        <ele>90.98</ele>
        <time>2020-03-31T14:06:19Z</time>
      </trkpt>
      <trkpt lat="43.84324" lon="0.66718">
        <ele>90.98</ele>
        <time>2020-03-31T14:06:23Z</time>
      </trkpt>
      <trkpt lat="43.84316" lon="0.66723">
        <ele>90.98</ele>
        <time>2020-03-31T14:06:29Z</time>
      </trkpt>
      <trkpt lat="43.84308" lon="0.66729">
        <ele>90.98</ele>
        <time>2020-03-31T14:06:37Z</time>
      </trkpt>
      <trkpt lat="43.84299" lon="0.66736">
        <ele>90.98</ele>
        <time>2020-03-31T14:06:45Z</time>
      </trkpt>
      <trkpt lat="43.84289" lon="0.66743">
        <ele>90.98</ele>
        <time>2020-03-31T14:06:53Z</time>
      </trkpt>
      <trkpt lat="43.84287" lon="0.66755">
        <ele>90.98</ele>
        <time>2020-03-31T14:07:01Z</time>
      </trkpt>
      <trkpt lat="43.84288" lon="0.66769">
        <ele>90.98</ele>
        <time>2020-03-31T14:07:09Z</time>
      </trkpt>
      <trkpt lat="43.84292" lon="0.66782">
        <ele>91.94</ele>
        <time>2020-03-31T14:07:17Z</time>
      </trkpt>
      <trkpt lat="43.84299" lon="0.66792">
        <ele>91.94</ele>
        <time>2020-03-31T14:07:24Z</time>
      </trkpt>
      <trkpt lat="43.84308" lon="0.66793">
        <ele>91.94</ele>
        <time>2020-03-31T14:07:29Z</time>
      </trkpt>
      <trkpt lat="43.84317" lon="0.66792">
        <ele>91.94</ele>
        <time>2020-03-31T14:07:39Z</time>
      </trkpt>
      <trkpt lat="43.84327" lon="0.66789">
        <ele>91.94</ele>
        <time>2020-03-31T14:07:44Z</time>
      </trkpt>
      <trkpt lat="43.84336" lon="0.66784">
        <ele>91.94</ele>
        <time>2020-03-31T14:07:53Z</time>
      </trkpt>
      <trkpt lat="43.84344" lon="0.6679">
        <ele>91.94</ele>
        <time>2020-03-31T14:08:07Z</time>
      </trkpt>
      <trkpt lat="43.84353" lon="0.66797">
        <ele>92.9</ele>
        <time>2020-03-31T14:08:18Z</time>
      </trkpt>
      <trkpt lat="43.84353" lon="0.6682">
        <ele>93.39</ele>
        <time>2020-03-31T14:09:18Z</time>
      </trkpt>
      <trkpt lat="43.8436" lon="0.66801">
        <ele>92.42</ele>
        <time>2020-03-31T14:10:15Z</time>
      </trkpt>
    </trkseg>
  </trk>
</gpx>